Time;durP1;ratioP1;P1;durP2;ratioP2;P2;SDS_P1;SDS_P2;PMS_P1;PMS_P2;Temp;Humidity;BMP_temperature;BMP_pressure;BME280_temperature;BME280_humidity;BME280_pressure;Samples;Min_cycle;Max_cycle;Signal;HPM_P1;HPM_P2
2021/08/17 00:00:34;;;;;;;14.70;8.38;;;;;;;17.77;86.12;101179.30;1798663;80;21039;-59
2021/08/17 00:03:03;;;;;;;13.72;7.62;;;;;;;17.74;86.09;101180.33;1798717;79;21079;-60
2021/08/17 00:05:32;;;;;;;19.32;8.63;;;;;;;17.73;86.06;101179.48;1798723;80;21075;-59
2021/08/17 00:08:04;;;;;;;13.80;8.78;;;;;;;17.71;86.08;101174.73;1798719;80;21537;-60
2021/08/17 00:10:32;;;;;;;15.60;8.60;;;;;;;17.70;86.11;101178.33;1798766;80;21056;-60
2021/08/17 00:13:01;;;;;;;16.57;8.95;;;;;;;17.70;86.10;101175.67;1798707;80;21064;-60
2021/08/17 00:15:30;;;;;;;16.27;8.18;;;;;;;17.68;86.07;101169.59;1798696;80;21142;-60
2021/08/17 00:17:59;;;;;;;13.78;9.58;;;;;;;17.69;86.13;101176.64;1798654;80;21533;-59
2021/08/17 00:20:28;;;;;;;14.15;9.13;;;;;;;17.70;86.26;101170.83;1798618;80;21129;-61
2021/08/17 00:22:57;;;;;;;15.45;8.58;;;;;;;17.69;86.43;101167.31;1798706;80;21523;-60
2021/08/17 00:25:26;;;;;;;14.65;8.38;;;;;;;17.72;86.41;101176.91;1798788;80;21063;-59
2021/08/17 00:27:55;;;;;;;14.68;8.35;;;;;;;17.72;86.37;101167.14;1798758;80;21529;-59
2021/08/17 00:30:23;;;;;;;16.95;8.40;;;;;;;17.73;86.34;101171.50;1798692;80;21083;-60
2021/08/17 00:32:52;;;;;;;13.55;8.08;;;;;;;17.73;86.29;101175.97;1798753;80;21035;-60
2021/08/17 00:35:25;;;;;;;13.50;8.63;;;;;;;17.71;86.29;101170.73;1798675;79;21071;-60
2021/08/17 00:37:54;;;;;;;15.85;9.08;;;;;;;17.72;86.39;101171.13;1798803;80;21498;-60
2021/08/17 00:40:23;;;;;;;18.12;8.15;;;;;;;17.74;86.91;101171.02;1798760;80;21126;-59
2021/08/17 00:42:52;;;;;;;20.02;9.38;;;;;;;17.75;86.78;101164.27;1799000;80;21096;-60
2021/08/17 00:45:22;;;;;;;17.30;9.20;;;;;;;17.76;86.76;101161.11;1798738;80;21106;-60
2021/08/17 00:47:53;;;;;;;15.45;8.20;;;;;;;17.77;86.99;101157.52;1798748;80;21068;-59
2021/08/17 00:50:27;;;;;;;15.50;9.43;;;;;;;17.75;87.18;101160.27;1797880;79;21137;-59
2021/08/17 00:53:00;;;;;;;28.07;10.30;;;;;;;17.72;87.26;101159.15;1798787;79;21134;-59
2021/08/17 00:55:29;;;;;;;23.77;10.63;;;;;;;17.67;87.44;101155.91;1798866;80;21055;-59
2021/08/17 00:57:59;;;;;;;14.03;9.33;;;;;;;17.63;87.52;101162.38;1793312;79;21619;-60
2021/08/17 01:00:29;;;;;;;16.65;10.10;;;;;;;17.59;87.55;101162.66;1768422;81;21054;-59
2021/08/17 01:02:58;;;;;;;17.05;9.85;;;;;;;17.55;87.57;101157.98;1768248;80;21165;-59
2021/08/17 01:05:29;;;;;;;20.72;10.03;;;;;;;17.53;87.54;101159.89;1768472;81;21066;-59
2021/08/17 01:07:59;;;;;;;16.30;10.30;;;;;;;17.50;87.71;101158.30;1768437;81;21050;-59
2021/08/17 01:10:29;;;;;;;18.52;10.63;;;;;;;17.46;87.92;101161.22;1768485;81;21132;-60
2021/08/17 01:12:57;;;;;;;17.98;9.45;;;;;;;17.45;87.87;101159.52;1768482;81;21556;-59
2021/08/17 01:15:26;;;;;;;18.40;9.40;;;;;;;17.42;87.80;101154.38;1768446;81;21078;-59
2021/08/17 01:17:55;;;;;;;22.93;10.15;;;;;;;17.40;87.70;101154.95;1768429;81;21156;-59
2021/08/17 01:20:25;;;;;;;19.57;9.73;;;;;;;17.36;87.65;101151.62;1768407;81;21514;-59
2021/08/17 01:22:54;;;;;;;16.67;9.65;;;;;;;17.34;87.69;101159.69;1768384;81;21062;-61
2021/08/17 01:25:24;;;;;;;19.55;10.60;;;;;;;17.31;87.83;101158.53;1768407;81;21591;-59
2021/08/17 01:27:53;;;;;;;17.57;9.33;;;;;;;17.29;87.96;101157.77;1768441;81;21575;-59
2021/08/17 01:30:21;;;;;;;18.82;10.38;;;;;;;17.26;88.17;101151.78;1768461;81;21066;-59
2021/08/17 01:32:50;;;;;;;19.23;9.15;;;;;;;17.23;88.31;101150.17;1768514;81;21117;-59
2021/08/17 01:35:19;;;;;;;16.85;9.28;;;;;;;17.22;88.22;101153.77;1768442;81;21074;-59
2021/08/17 01:37:47;;;;;;;14.33;9.48;;;;;;;17.20;88.12;101153.02;1768408;81;21035;-60
2021/08/17 01:40:16;;;;;;;13.15;9.45;;;;;;;17.19;88.23;101149.98;1768498;81;21062;-60
2021/08/17 01:42:56;;;;;;;18.35;10.65;;;;;;;17.18;88.43;101146.92;1768441;81;21090;-60
2021/08/17 01:45:22;;;;;;;20.00;10.60;;;;;;;17.17;88.46;101139.88;1768249;81;21490;-59
2021/08/17 01:47:51;;;;;;;26.65;11.38;;;;;;;17.17;88.52;101139.88;1768541;81;21366;-59
2021/08/17 01:50:20;;;;;;;27.95;11.38;;;;;;;17.16;88.57;101134.20;1768371;80;21497;-60
2021/08/17 01:52:49;;;;;;;20.43;10.60;;;;;;;17.15;88.69;101140.45;1768478;80;21569;-59
2021/08/17 01:55:18;;;;;;;18.82;9.75;;;;;;;17.13;88.76;101141.90;1768504;81;21066;-59
2021/08/17 01:57:47;;;;;;;19.20;10.75;;;;;;;17.12;88.69;101139.33;1768316;81;21137;-60
2021/08/17 02:00:16;;;;;;;21.97;10.50;;;;;;;17.12;88.71;101147.31;1795095;79;21114;-59
2021/08/17 02:02:45;;;;;;;22.13;11.10;;;;;;;17.11;88.75;101140.26;1800918;80;21039;-59
2021/08/17 02:05:13;;;;;;;13.40;8.98;;;;;;;17.11;88.77;101141.59;1801002;80;21031;-60
2021/08/17 02:07:42;;;;;;;17.17;10.65;;;;;;;17.09;88.83;101139.02;1800911;80;21063;-59
2021/08/17 02:10:11;;;;;;;17.30;10.28;;;;;;;17.09;88.93;101142.16;1801040;80;21118;-60
2021/08/17 02:12:40;;;;;;;22.50;10.20;;;;;;;17.09;89.00;101140.83;1800993;79;21149;-60
2021/08/17 02:15:10;;;;;;;21.05;11.28;;;;;;;17.09;88.98;101144.82;1800850;80;21568;-60
2021/08/17 02:17:38;;;;;;;25.60;11.83;;;;;;;17.09;88.96;101154.98;1801059;80;21137;-59
2021/08/17 02:20:08;;;;;;;24.35;11.38;;;;;;;17.09;88.99;101151.47;1801011;80;21055;-59
2021/08/17 02:22:37;;;;;;;18.87;11.65;;;;;;;17.10;89.19;101153.20;1801083;80;21134;-59
2021/08/17 02:25:07;;;;;;;19.73;11.80;;;;;;;17.10;89.25;101151.87;1800894;80;21087;-60
2021/08/17 02:27:37;;;;;;;21.70;10.75;;;;;;;17.11;89.48;101149.57;1800932;80;21466;-60
2021/08/17 02:30:07;;;;;;;21.60;11.50;;;;;;;17.11;89.44;101146.91;1801081;80;21095;-59
2021/08/17 02:32:36;;;;;;;14.85;10.80;;;;;;;17.12;89.56;101147.31;1801017;80;21125;-59
2021/08/17 02:35:06;;;;;;;16.48;10.70;;;;;;;17.12;89.46;101145.50;1800984;80;21505;-60
2021/08/17 02:37:34;;;;;;;19.35;10.80;;;;;;;17.14;89.41;101148.06;1801088;80;21063;-59
2021/08/17 02:40:04;;;;;;;21.75;11.68;;;;;;;17.14;89.40;101148.91;1800977;80;21162;-60
2021/08/17 02:42:34;;;;;;;13.53;9.48;;;;;;;17.14;89.49;101154.23;1800949;80;21667;-59
2021/08/17 02:45:02;;;;;;;23.10;10.43;;;;;;;17.15;89.53;101153.30;1801094;80;21510;-59
2021/08/17 02:47:32;;;;;;;18.50;10.85;;;;;;;17.14;89.60;101151.58;1800992;80;21090;-59
2021/08/17 02:50:01;;;;;;;21.52;9.68;;;;;;;17.14;89.54;101162.22;1800997;80;21571;-59
2021/08/17 02:52:30;;;;;;;18.67;9.55;;;;;;;17.13;89.48;101159.64;1800973;80;21493;-59
2021/08/17 02:54:59;;;;;;;18.80;10.13;;;;;;;17.14;89.35;101163.55;1800998;80;21059;-60
2021/08/17 02:57:28;;;;;;;15.18;10.10;;;;;;;17.12;89.38;101159.28;1800944;80;21234;-60
2021/08/17 02:59:57;;;;;;;18.27;8.85;;;;;;;17.15;89.50;101152.42;1790720;80;21074;-59
2021/08/17 03:02:25;;;;;;;17.05;8.25;;;;;;;17.21;89.59;101156.52;1774216;81;21066;-59
2021/08/17 03:04:54;;;;;;;14.83;8.33;;;;;;;17.29;89.65;101157.77;1774208;81;21140;-59
2021/08/17 03:07:23;;;;;;;14.38;8.65;;;;;;;17.38;89.70;101161.70;1774041;81;21074;-60
2021/08/17 03:09:51;;;;;;;17.45;9.10;;;;;;;17.47;89.70;101164.28;1774120;81;21195;-59
2021/08/17 03:12:20;;;;;;;17.05;7.95;;;;;;;17.53;89.65;101158.56;1774061;81;21062;-59
2021/08/17 03:14:49;;;;;;;15.98;8.10;;;;;;;17.64;89.58;101168.07;1774105;81;21105;-59
2021/08/17 03:17:17;;;;;;;14.73;7.75;;;;;;;17.72;89.48;101171.58;1774196;81;21047;-59
2021/08/17 03:19:46;;;;;;;19.07;8.25;;;;;;;17.79;89.37;101170.25;1774108;81;21063;-65
2021/08/17 03:22:15;;;;;;;12.50;7.20;;;;;;;17.86;89.13;101170.77;1774041;81;21188;-59
2021/08/17 03:24:43;;;;;;;15.40;7.72;;;;;;;17.92;88.92;101168.55;1774120;81;21051;-59
2021/08/17 03:27:12;;;;;;;14.50;9.03;;;;;;;18.01;88.69;101172.45;1774161;81;21179;-59
2021/08/17 03:29:41;;;;;;;17.32;8.45;;;;;;;18.09;88.32;101166.63;1774098;81;21102;-59
2021/08/17 03:32:09;;;;;;;16.15;9.08;;;;;;;18.16;87.78;101171.10;1774226;81;21054;-59
2021/08/17 03:34:38;;;;;;;18.73;8.78;;;;;;;18.25;87.60;101173.18;1774073;81;21145;-59
2021/08/17 03:37:07;;;;;;;13.58;8.00;;;;;;;18.34;87.36;101168.58;1774037;81;21098;-59
2021/08/17 03:39:35;;;;;;;12.85;7.75;;;;;;;18.44;87.14;101163.05;1774157;81;21063;-60
2021/08/17 03:42:04;;;;;;;13.90;7.80;;;;;;;18.55;86.89;101158.31;1774228;81;21034;-60
2021/08/17 03:44:33;;;;;;;13.30;7.42;;;;;;;18.65;86.40;101166.59;1774078;81;21529;-60
2021/08/17 03:47:03;;;;;;;13.32;7.60;;;;;;;18.73;85.75;101165.58;1774218;81;21547;-61
2021/08/17 03:49:31;;;;;;;13.05;7.30;;;;;;;18.84;85.48;101171.08;1774045;81;21067;-60
2021/08/17 03:52:00;;;;;;;14.10;7.17;;;;;;;18.98;85.11;101169.29;1774199;81;21027;-60
2021/08/17 03:54:29;;;;;;;14.85;7.37;;;;;;;19.15;84.79;101166.34;1774124;81;21054;-60
2021/08/17 03:56:57;;;;;;;12.85;6.70;;;;;;;19.34;84.16;101165.08;1774083;81;21202;-61
2021/08/17 03:59:26;;;;;;;13.35;6.90;;;;;;;19.53;83.68;101154.84;1774027;81;21015;-61
2021/08/17 04:01:55;;;;;;;16.15;6.95;;;;;;;19.79;83.33;101153.48;1768773;79;21110;-61
2021/08/17 04:04:23;;;;;;;12.18;6.15;;;;;;;20.05;82.74;101150.30;1768401;81;21082;-61
2021/08/17 04:06:52;;;;;;;13.38;6.05;;;;;;;20.27;81.82;101150.92;1768390;81;21114;-60
2021/08/17 04:09:21;;;;;;;12.82;6.37;;;;;;;20.52;81.32;101147.75;1768369;81;21035;-61
2021/08/17 04:11:50;;;;;;;11.15;5.62;;;;;;;20.72;80.57;101148.48;1768319;81;21134;-61
2021/08/17 04:14:19;;;;;;;9.08;5.33;;;;;;;20.92;79.96;101148.31;1768329;81;21054;-61
2021/08/17 04:16:47;;;;;;;13.50;5.95;;;;;;;21.22;79.62;101150.93;1768368;81;21506;-60
2021/08/17 04:19:16;;;;;;;9.53;5.10;;;;;;;21.56;79.39;101147.84;1768354;81;21564;-60
2021/08/17 04:21:44;;;;;;;13.83;5.87;;;;;;;21.89;78.86;101156.86;1768393;81;21071;-60
2021/08/17 04:24:13;;;;;;;13.65;6.80;;;;;;;22.21;78.25;101152.05;1768480;81;21062;-61
2021/08/17 04:26:42;;;;;;;14.87;6.17;;;;;;;22.45;77.33;101150.55;1768297;81;21118;-61
2021/08/17 04:29:11;;;;;;;11.73;5.97;;;;;;;22.65;76.37;101150.70;1768393;81;21051;-60
2021/08/17 04:31:39;;;;;;;22.30;7.60;;;;;;;22.89;75.65;101150.00;1768333;81;21513;-60
2021/08/17 04:34:08;;;;;;;16.62;7.67;;;;;;;23.11;74.80;101151.73;1768365;81;21164;-60
2021/08/17 04:36:37;;;;;;;13.28;8.40;;;;;;;23.31;74.13;101155.87;1768368;81;21094;-60
2021/08/17 04:39:06;;;;;;;11.57;7.60;;;;;;;23.55;73.44;101145.31;1768263;81;21066;-60
2021/08/17 04:41:34;;;;;;;11.00;7.47;;;;;;;23.83;73.14;101144.63;1768399;81;21058;-60
2021/08/17 04:44:03;;;;;;;9.30;6.15;;;;;;;24.15;72.61;101148.95;1768454;81;21173;-60
2021/08/17 04:46:32;;;;;;;12.58;6.50;;;;;;;24.46;72.07;101142.98;1768450;81;21147;-60
2021/08/17 04:49:01;;;;;;;13.95;9.83;;;;;;;24.72;71.23;101140.27;1768347;81;21458;-60
2021/08/17 04:51:30;;;;;;;13.13;9.00;;;;;;;24.90;70.24;101144.41;1768390;81;21039;-61
2021/08/17 04:53:59;;;;;;;14.03;8.70;;;;;;;25.19;69.79;101139.81;1768430;81;21510;-60
2021/08/17 04:56:27;;;;;;;15.70;8.00;;;;;;;25.56;69.20;101141.74;1768380;81;21035;-60
2021/08/17 04:58:56;;;;;;;14.90;8.48;;;;;;;25.82;68.26;101145.08;1768442;81;21051;-60
2021/08/17 05:01:24;;;;;;;15.72;7.00;;;;;;;26.02;67.50;101139.11;1768289;79;21163;-61
2021/08/17 05:03:53;;;;;;;11.93;6.67;;;;;;;26.33;66.96;101146.36;1768326;81;21489;-60
2021/08/17 05:06:22;;;;;;;12.20;5.92;;;;;;;26.65;66.37;101149.56;1768246;81;21631;-60
2021/08/17 05:08:50;;;;;;;12.40;4.72;;;;;;;27.00;65.54;101141.08;1768331;81;21145;-60
2021/08/17 05:11:19;;;;;;;11.93;5.45;;;;;;;27.30;64.71;101143.34;1768343;81;21031;-60
2021/08/17 05:13:47;;;;;;;8.93;4.85;;;;;;;27.55;63.66;101142.13;1768316;81;21082;-60
2021/08/17 05:16:16;;;;;;;8.80;4.70;;;;;;;27.79;62.89;101139.19;1768318;81;21035;-60
2021/08/17 05:18:45;;;;;;;10.50;4.78;;;;;;;28.03;61.88;101143.36;1768464;81;21075;-61
2021/08/17 05:21:13;;;;;;;11.50;4.28;;;;;;;28.18;60.50;101141.38;1768332;81;21490;-60
2021/08/17 05:23:42;;;;;;;11.10;5.20;;;;;;;28.35;59.34;101143.11;1768338;81;21051;-60
2021/08/17 05:26:11;;;;;;;8.55;4.35;;;;;;;28.56;59.22;101146.72;1768435;81;21051;-60
2021/08/17 05:28:39;;;;;;;9.45;3.80;;;;;;;28.73;58.33;101146.20;1768452;81;21062;-60
2021/08/17 05:31:08;;;;;;;8.05;4.55;;;;;;;28.83;57.37;101148.25;1768523;81;21015;-60
2021/08/17 05:33:37;;;;;;;9.05;5.17;;;;;;;29.06;56.74;101143.48;1768574;81;21217;-60
2021/08/17 05:36:05;;;;;;;14.65;6.20;;;;;;;29.15;55.58;101142.48;1748178;81;21133;-60
2021/08/17 05:38:35;;;;;;;14.58;5.95;;;;;;;29.20;55.09;101140.11;1768414;81;21160;-60
2021/08/17 05:41:04;;;;;;;12.03;5.72;;;;;;;29.34;54.87;101141.25;1768448;81;21175;-60
2021/08/17 05:43:33;;;;;;;12.25;5.72;;;;;;;29.58;54.85;101145.75;1768424;81;21310;-60
2021/08/17 05:46:03;;;;;;;13.40;5.62;;;;;;;29.77;53.85;101147.75;1768403;81;21134;-60
2021/08/17 05:48:32;;;;;;;14.55;5.08;;;;;;;29.96;53.61;101141.90;1768504;81;21035;-60
2021/08/17 05:51:01;;;;;;;14.63;5.47;;;;;;;30.23;51.97;101142.44;1768446;81;21513;-60
2021/08/17 05:53:29;;;;;;;11.25;4.95;;;;;;;30.49;51.27;101143.48;1768419;81;21170;-60
2021/08/17 05:55:58;;;;;;;9.25;5.08;;;;;;;30.64;50.60;101146.25;1768438;81;21141;-60
2021/08/17 05:58:27;;;;;;;7.03;4.45;;;;;;;30.75;50.06;101145.81;1768296;81;21140;-60
2021/08/17 06:00:55;;;;;;;11.65;5.05;;;;;;;30.91;49.37;101144.00;1768642;81;21079;-60
2021/08/17 06:03:24;;;;;;;8.33;4.87;;;;;;;31.03;48.92;101147.97;1768581;79;21123;-60
2021/08/17 06:05:57;;;;;;;9.93;4.90;;;;;;;31.05;49.13;101147.80;1768436;81;21062;-60
2021/08/17 06:08:23;;;;;;;9.15;4.90;;;;;;;30.85;47.76;101142.83;1768167;81;21029;-60
2021/08/17 06:10:52;;;;;;;13.03;6.08;;;;;;;30.73;48.14;101149.23;1768336;81;21533;-61
2021/08/17 06:13:23;;;;;;;9.40;4.90;;;;;;;30.71;48.29;101147.21;1768424;81;21050;-60
2021/08/17 06:15:51;;;;;;;10.82;5.22;;;;;;;30.86;48.54;101151.82;1768211;81;21128;-60
2021/08/17 06:18:20;;;;;;;9.05;4.75;;;;;;;30.94;47.87;101147.72;1768630;81;21624;-60
2021/08/17 06:20:48;;;;;;;12.93;5.40;;;;;;;31.08;47.80;101145.55;1768445;81;21070;-60
2021/08/17 06:23:17;;;;;;;12.43;5.10;;;;;;;31.12;47.73;101146.03;1768472;81;21062;-61
2021/08/17 06:25:46;;;;;;;10.00;4.97;;;;;;;31.33;47.71;101146.64;1768437;81;21152;-60
2021/08/17 06:28:15;;;;;;;9.23;3.80;;;;;;;31.65;46.81;101141.87;1768403;81;21591;-60
2021/08/17 06:30:44;;;;;;;8.83;3.95;;;;;;;31.81;46.22;101134.86;1768432;81;21641;-60
2021/08/17 06:33:12;;;;;;;8.35;3.95;;;;;;;31.85;45.52;101134.80;1768616;81;21095;-60
2021/08/17 06:35:41;;;;;;;11.38;4.00;;;;;;;31.90;44.97;101128.28;1768410;81;21082;-60
2021/08/17 06:38:10;;;;;;;15.03;4.37;;;;;;;32.15;44.33;101130.70;1768292;81;21140;-60
2021/08/17 06:40:39;;;;;;;13.88;4.47;;;;;;;32.15;45.15;101132.06;1768441;81;21129;-60
2021/08/17 06:43:07;;;;;;;9.88;3.70;;;;;;;32.34;44.66;101128.38;1768530;81;21141;-60
2021/08/17 06:45:36;;;;;;;9.33;4.05;;;;;;;32.62;44.73;101129.83;1768433;81;21105;-60
2021/08/17 06:48:05;;;;;;;8.30;3.58;;;;;;;32.87;43.41;101127.00;1768398;81;21083;-60
2021/08/17 06:50:34;;;;;;;8.95;4.05;;;;;;;33.22;43.09;101126.23;1768279;81;21189;-60
2021/08/17 06:53:03;;;;;;;12.58;4.62;;;;;;;33.25;42.38;101123.09;1768417;81;21051;-60
2021/08/17 06:55:32;;;;;;;17.37;5.72;;;;;;;33.29;42.44;101124.36;1768521;81;21054;-60
2021/08/17 06:58:00;;;;;;;11.18;4.95;;;;;;;33.44;42.36;101126.97;1768524;81;21067;-60
2021/08/17 07:00:29;;;;;;;18.85;4.78;;;;;;;33.73;41.59;101127.78;1768376;81;21074;-60
2021/08/17 07:02:58;;;;;;;12.63;4.40;;;;;;;33.90;41.52;101124.16;1782195;79;21120;-60
2021/08/17 07:05:26;;;;;;;14.25;5.00;;;;;;;33.90;41.35;101120.06;1801086;80;21204;-60
2021/08/17 07:07:55;;;;;;;10.93;4.72;;;;;;;34.16;41.39;101127.48;1801064;80;21075;-60
2021/08/17 07:10:24;;;;;;;8.55;4.53;;;;;;;34.42;41.26;101129.48;1801000;79;21094;-60
2021/08/17 07:12:52;;;;;;;7.28;4.05;;;;;;;34.60;40.96;101129.70;1801064;80;21129;-60
2021/08/17 07:15:21;;;;;;;9.75;4.80;;;;;;;34.81;40.88;101131.95;1800989;80;21102;-60
2021/08/17 07:17:50;;;;;;;8.38;4.42;;;;;;;34.96;40.49;101133.92;1800910;80;21083;-60
2021/08/17 07:20:19;;;;;;;11.05;4.62;;;;;;;35.23;40.06;101135.80;1801092;79;21518;-60
2021/08/17 07:22:48;;;;;;;12.20;4.30;;;;;;;35.34;40.25;101128.30;1800971;80;21521;-60
2021/08/17 07:25:17;;;;;;;10.35;4.05;;;;;;;34.92;39.08;101123.09;1800994;80;21055;-60
2021/08/17 07:27:46;;;;;;;11.60;4.28;;;;;;;34.92;39.08;101123.09;1800969;80;21047;-60
2021/08/17 07:30:15;;;;;;;11.03;4.70;;;;;;;34.83;39.80;101133.11;1800845;80;21114;-61
2021/08/17 07:32:45;;;;;;;7.80;5.05;;;;;;;34.77;39.13;101129.33;1801162;80;21036;-61
2021/08/17 07:35:17;;;;;;;12.85;4.47;;;;;;;34.94;38.88;101119.62;1800988;79;21099;-61
2021/08/17 07:37:48;;;;;;;10.38;4.83;;;;;;;35.06;39.02;101110.76;1801103;80;21043;-60
2021/08/17 07:40:18;;;;;;;5.65;4.03;;;;;;;35.26;39.18;101118.42;1801041;80;21125;-60
2021/08/17 07:42:47;;;;;;;6.50;3.80;;;;;;;35.31;38.12;101120.53;1801122;80;21486;-61
2021/08/17 07:45:16;;;;;;;12.50;5.72;;;;;;;35.35;38.15;101114.94;1800937;80;21114;-60
2021/08/17 07:47:45;;;;;;;10.95;4.35;;;;;;;35.38;38.72;101094.82;1800925;80;21597;-60
2021/08/17 07:50:15;;;;;;;14.87;5.00;;;;;;;35.75;38.16;101107.98;1800932;80;21545;-60
2021/08/17 07:52:44;;;;;;;6.67;4.00;;;;;;;35.99;37.93;101095.95;1800954;80;21502;-60
2021/08/17 07:55:15;;;;;;;6.08;3.80;;;;;;;36.29;37.54;101099.77;1800880;80;21079;-60
2021/08/17 07:57:44;;;;;;;9.73;3.98;;;;;;;36.04;36.65;101098.34;1801226;80;21059;-60
2021/08/17 08:00:14;;;;;;;7.60;4.10;;;;;;;36.24;37.00;101089.16;1800937;80;21541;-60
2021/08/17 08:02:43;;;;;;;7.53;4.22;;;;;;;36.42;36.88;101093.34;1800931;80;21062;-61
2021/08/17 08:05:12;;;;;;;12.37;7.05;;;;;;;36.41;37.02;101092.19;1800928;80;21056;-60
2021/08/17 08:07:41;;;;;;;8.65;4.33;;;;;;;36.58;37.47;101087.02;1800853;80;21132;-60
2021/08/17 08:10:10;;;;;;;10.98;4.37;;;;;;;36.90;37.05;101083.12;1800932;80;21141;-60
2021/08/17 08:12:39;;;;;;;6.67;3.80;;;;;;;37.05;36.91;101083.30;1801139;80;21051;-60
2021/08/17 08:15:11;;;;;;;6.12;3.90;;;;;;;36.88;36.03;101075.66;1800950;80;21130;-60
2021/08/17 08:17:40;;;;;;;7.53;4.10;;;;;;;36.72;36.22;101078.98;1801131;80;21059;-60
2021/08/17 08:20:10;;;;;;;8.83;3.62;;;;;;;36.88;36.47;101071.55;1800829;79;21562;-61
2021/08/17 08:22:39;;;;;;;6.45;3.55;;;;;;;37.05;36.13;101077.81;1800963;80;21056;-60
2021/08/17 08:25:08;;;;;;;6.00;3.62;;;;;;;36.72;35.57;101070.75;1800961;80;21556;-60
2021/08/17 08:27:37;;;;;;;7.80;3.80;;;;;;;36.55;36.16;101072.38;1800934;80;21059;-60
2021/08/17 08:30:07;;;;;;;16.23;4.03;;;;;;;36.67;36.53;101067.87;1800920;80;21083;-60
2021/08/17 08:32:36;;;;;;;7.47;3.83;;;;;;;36.69;36.94;101071.22;1800981;80;21110;-60
2021/08/17 08:35:07;;;;;;;6.22;3.47;;;;;;;36.60;36.91;101075.28;1800898;80;21118;-60
2021/08/17 08:37:36;;;;;;;6.87;4.20;;;;;;;36.48;36.78;101077.90;1800893;80;21051;-60
2021/08/17 08:40:07;;;;;;;6.72;4.60;;;;;;;36.34;36.38;101075.81;1800883;80;21569;-60
2021/08/17 08:42:36;;;;;;;6.30;3.40;;;;;;;36.49;36.39;101072.20;1801062;80;21051;-60
2021/08/17 08:45:06;;;;;;;10.18;4.87;;;;;;;36.65;36.22;101073.55;1800956;80;21464;-60
2021/08/17 08:47:36;;;;;;;8.08;4.47;;;;;;;36.85;36.73;101066.53;1800889;80;21102;-60
2021/08/17 08:50:05;;;;;;;8.65;4.53;;;;;;;36.60;36.24;101063.77;1801023;80;21103;-60
2021/08/17 08:52:34;;;;;;;5.05;3.52;;;;;;;36.23;36.30;101065.03;1800911;80;21146;-60
2021/08/17 08:55:05;;;;;;;7.67;4.70;;;;;;;36.10;36.70;101067.30;1800898;80;21078;-60
2021/08/17 08:57:34;;;;;;;5.62;3.95;;;;;;;36.34;37.36;101067.59;1800871;80;21145;-60
2021/08/17 09:00:04;;;;;;;6.50;4.00;;;;;;;36.75;36.46;101059.34;1800854;79;21776;-60
2021/08/17 09:02:33;;;;;;;7.65;4.20;;;;;;;37.06;36.43;101061.66;1801023;80;21063;-60
2021/08/17 09:05:03;;;;;;;4.75;3.70;;;;;;;37.04;36.60;101066.55;1799516;80;21566;-60
2021/08/17 09:07:40;;;;;;;4.37;3.55;;;;;;;36.81;35.75;101061.16;1798841;80;21059;-60
2021/08/17 09:10:23;;;;;;;8.00;4.10;;;;;;;36.58;36.20;101061.80;1798838;80;21040;-60
2021/08/17 09:12:55;;;;;;;8.75;3.52;;;;;;;36.43;36.96;101053.05;1798875;80;21047;-60
2021/08/17 09:15:30;;;;;;;6.30;3.80;;;;;;;36.18;36.07;101054.39;1798920;80;21047;-60
2021/08/17 09:18:02;;;;;;;8.18;4.33;;;;;;;35.81;36.37;101052.84;1798262;79;21035;-60
2021/08/17 09:20:45;;;;;;;7.62;3.87;;;;;;;35.66;37.16;101047.09;1798895;80;21509;-60
2021/08/17 09:23:25;;;;;;;6.75;4.20;;;;;;;36.05;37.48;101049.31;1798776;80;21083;-60
2021/08/17 09:25:56;;;;;;;9.48;4.42;;;;;;;36.33;37.04;101049.45;1795255;79;21067;-60
2021/08/17 09:28:33;;;;;;;8.28;4.58;;;;;;;36.18;37.26;101044.30;1798913;80;21666;-60
2021/08/17 09:31:07;;;;;;;10.80;4.90;;;;;;;36.34;37.24;101048.39;1798666;80;21568;-62
2021/08/17 09:33:41;;;;;;;8.90;4.15;;;;;;;36.44;37.02;101041.86;1796232;80;21090;-60
2021/08/17 09:36:11;;;;;;;10.90;4.95;;;;;;;36.51;36.64;101031.67;1798898;80;21037;-60
2021/08/17 09:38:39;;;;;;;9.53;4.50;;;;;;;36.65;37.26;101039.77;1798772;80;21118;-60
2021/08/17 09:41:23;;;;;;;6.83;4.50;;;;;;;36.63;37.48;101044.64;1798939;79;21063;-60
2021/08/17 09:44:06;;;;;;;10.58;4.50;;;;;;;36.73;37.44;101042.27;1798729;80;21146;-61
2021/08/17 09:46:37;;;;;;;10.13;5.28;;;;;;;36.88;37.40;101037.25;1798797;79;21036;-60
2021/08/17 09:49:27;;;;;;;9.18;5.12;;;;;;;36.94;37.12;101039.61;1798897;80;21103;-61
2021/08/17 09:51:56;;;;;;;11.38;5.47;;;;;;;36.96;36.54;101047.08;1798654;80;21099;-61
2021/08/17 09:54:27;;;;;;;10.48;5.90;;;;;;;36.59;36.43;101041.52;1798872;80;21103;-60
2021/08/17 09:57:00;;;;;;;12.98;6.22;;;;;;;36.46;36.47;101045.21;1798768;80;21111;-60
2021/08/17 09:59:31;;;;;;;10.38;5.17;;;;;;;36.41;36.80;101035.98;1798803;80;21059;-60
2021/08/17 10:02:01;;;;;;;10.25;5.25;;;;;;;36.45;36.43;101033.95;1798731;79;21056;-60
2021/08/17 10:04:33;;;;;;;11.20;6.28;;;;;;;36.40;36.69;101042.55;1798604;80;22799;-61
2021/08/17 10:07:03;;;;;;;10.98;6.30;;;;;;;36.34;36.58;101036.06;1798752;80;21027;-60
2021/08/17 10:09:34;;;;;;;13.08;6.55;;;;;;;36.16;36.60;101034.59;1798834;80;21137;-60
2021/08/17 10:12:05;;;;;;;12.58;6.10;;;;;;;35.59;37.40;101033.13;1798824;80;21036;-60
2021/08/17 10:14:34;;;;;;;15.70;6.97;;;;;;;35.23;38.42;101038.14;1798745;79;21031;-60
2021/08/17 10:17:03;;;;;;;14.55;6.35;;;;;;;35.25;38.75;101025.08;1798648;80;21071;-61
2021/08/17 10:19:34;;;;;;;11.68;6.00;;;;;;;35.37;38.39;101026.05;1798757;79;21133;-60
2021/08/17 10:22:05;;;;;;;12.07;5.90;;;;;;;35.57;38.92;101025.96;1798838;80;21144;-60
2021/08/17 10:24:37;;;;;;;15.95;7.87;;;;;;;35.52;38.41;101020.30;1798999;80;21492;-60
2021/08/17 10:27:27;;;;;;;14.00;7.28;;;;;;;35.36;38.21;101034.51;1798872;80;21091;-60
2021/08/17 10:30:11;;;;;;;13.05;7.50;;;;;;;35.32;37.95;101027.77;1798752;80;21059;-60
2021/08/17 10:32:43;;;;;;;13.15;6.53;;;;;;;35.24;38.84;101030.22;1798405;79;21549;-60
2021/08/17 10:35:33;;;;;;;16.77;6.80;;;;;;;35.22;38.53;101026.86;1798668;79;21578;-60
2021/08/17 10:38:13;;;;;;;16.85;8.30;;;;;;;35.24;38.78;101026.11;1798757;80;21134;-60
2021/08/17 10:40:54;;;;;;;15.10;7.75;;;;;;;35.02;39.10;101031.53;1798767;80;21517;-60
2021/08/17 10:43:26;;;;;;;14.68;7.42;;;;;;;35.02;39.10;101031.53;1798706;80;21619;-59
2021/08/17 10:46:00;;;;;;;20.75;8.45;;;;;;;34.84;38.90;101028.93;1793288;80;21129;-59
2021/08/17 10:48:50;;;;;;;15.72;8.35;;;;;;;34.80;39.29;101024.44;1798629;80;21199;-60
2021/08/17 10:51:22;;;;;;;16.67;8.68;;;;;;;34.59;39.43;101024.11;1798737;80;21059;-59
2021/08/17 10:54:09;;;;;;;16.00;8.37;;;;;;;34.19;39.35;101018.64;1798999;80;21051;-59
2021/08/17 10:56:40;;;;;;;16.75;8.33;;;;;;;34.04;39.80;101016.62;1798684;80;21075;-60
2021/08/17 10:59:09;;;;;;;20.12;8.38;;;;;;;34.27;40.28;101005.83;1798701;80;21095;-59
2021/08/17 11:01:42;;;;;;;18.87;8.18;;;;;;;34.27;40.28;101005.83;1798714;79;21557;-60
2021/08/17 11:04:19;;;;;;;14.87;7.75;;;;;;;34.12;40.97;101012.30;1798732;80;21063;-59
2021/08/17 11:06:50;;;;;;;19.20;8.20;;;;;;;34.13;41.33;101012.63;1798676;80;21095;-59
2021/08/17 11:09:31;;;;;;;15.80;7.78;;;;;;;33.88;41.62;101008.81;1798641;80;21137;-59
2021/08/17 11:12:03;;;;;;;16.42;7.37;;;;;;;33.40;42.21;101001.02;1798852;80;21129;-59
2021/08/17 11:14:34;;;;;;;17.30;8.65;;;;;;;32.97;42.62;100993.00;1798848;80;21048;-60
2021/08/17 11:17:13;;;;;;;19.70;9.08;;;;;;;32.74;43.33;100999.26;1798835;80;21055;-59
2021/08/17 11:19:45;;;;;;;19.32;8.20;;;;;;;32.67;43.16;100993.25;1798619;80;21153;-59
2021/08/17 11:22:17;;;;;;;14.30;5.37;;;;;;;32.62;42.85;100991.64;1798668;80;21055;-60
2021/08/17 11:24:48;;;;;;;17.50;7.00;;;;;;;32.20;44.20;100991.18;1798893;79;21062;-59
2021/08/17 11:27:20;;;;;;;13.78;8.10;;;;;;;31.96;45.19;100997.84;1798859;80;21506;-60
2021/08/17 11:29:57;;;;;;;16.27;8.30;;;;;;;31.97;46.02;100991.38;1798732;80;21573;-59
2021/08/17 11:32:34;;;;;;;17.00;7.62;;;;;;;32.15;45.57;100990.92;1798769;80;21051;-59